createdAt,value
2022-11-13T00:00:55.925Z,12.85
2022-11-13T00:06:02.890Z,12.89
2022-11-13T00:11:09.515Z,12.86
2022-11-13T00:16:15.730Z,12.75
2022-11-13T00:21:20.955Z,12.67
2022-11-13T00:26:26.934Z,12.65
2022-11-13T00:31:31.056Z,12.64
2022-11-13T00:36:34.241Z,12.63
2022-11-13T00:41:38.881Z,12.60
2022-11-13T00:46:42.106Z,12.61
2022-11-13T00:51:45.279Z,12.66
2022-11-13T00:56:49.840Z,12.68
2022-11-13T01:01:53.026Z,12.70
2022-11-13T01:06:56.619Z,12.80
2022-11-13T01:12:01.262Z,12.83
2022-11-13T01:17:04.413Z,12.78
2022-11-13T01:22:07.561Z,12.79
2022-11-13T01:27:13.349Z,12.75
2022-11-13T01:32:16.468Z,12.66
2022-11-13T01:37:19.604Z,12.66
2022-11-13T01:42:24.209Z,12.60
2022-11-13T01:47:27.938Z,12.57
2022-11-13T01:52:33.777Z,12.51
2022-11-13T01:57:38.434Z,12.46
2022-11-13T02:02:41.573Z,12.38
2022-11-13T02:07:44.759Z,12.41
2022-11-13T02:12:52.302Z,12.50
2022-11-13T02:17:58.365Z,12.48
2022-11-13T02:23:10.475Z,12.50
2022-11-13T02:28:15.053Z,12.49
2022-11-13T02:33:27.839Z,12.47
2022-11-13T02:38:31.749Z,12.49
2022-11-13T02:43:36.379Z,12.49
2022-11-13T02:48:39.521Z,12.44
2022-11-13T02:53:42.686Z,12.42
2022-11-13T02:58:47.233Z,12.37
2022-11-13T03:03:58.468Z,12.39
2022-11-13T03:09:01.825Z,12.40
2022-11-13T03:14:06.392Z,12.40
2022-11-13T03:19:10.101Z,12.35
2022-11-13T03:24:13.254Z,12.40
2022-11-13T03:29:17.974Z,12.33
2022-11-13T03:34:21.309Z,12.30
2022-11-13T03:39:24.461Z,12.27
2022-11-13T03:44:29.024Z,12.30
2022-11-13T03:49:32.151Z,12.28
2022-11-13T03:54:35.645Z,12.25
2022-11-13T03:59:40.224Z,12.25
2022-11-13T04:04:43.358Z,12.22
2022-11-13T04:09:46.563Z,12.20
2022-11-13T04:14:51.140Z,12.24
2022-11-13T04:19:54.267Z,12.17
2022-11-13T04:24:57.452Z,12.11
2022-11-13T04:30:02.083Z,12.06
2022-11-13T04:35:05.591Z,12.03
2022-11-13T04:40:10.405Z,12.02
2022-11-13T04:45:14.947Z,12.00
2022-11-13T04:50:18.982Z,12.02
2022-11-13T04:55:22.133Z,12.03
2022-11-13T05:00:26.753Z,12.07
2022-11-13T05:05:29.928Z,12.04
2022-11-13T05:10:33.094Z,12.02
2022-11-13T05:15:37.654Z,12.02
2022-11-13T05:20:40.905Z,11.97
2022-11-13T05:25:44.069Z,11.95
2022-11-13T05:30:48.636Z,11.93
2022-11-13T05:35:51.767Z,11.90
2022-11-13T05:40:54.941Z,11.86
2022-11-13T05:46:03.872Z,11.87
2022-11-13T05:51:08.534Z,11.86
2022-11-13T05:56:13.239Z,11.86
2022-11-13T06:01:19.977Z,11.80
2022-11-13T06:06:24.453Z,11.81
2022-11-13T06:11:29.909Z,11.77
2022-11-13T06:16:37.839Z,11.82
2022-11-13T06:21:42.125Z,11.80
2022-11-13T06:26:45.242Z,11.77
2022-11-13T06:31:49.810Z,11.79
2022-11-13T06:36:52.925Z,11.80
2022-11-13T06:41:56.069Z,11.80
2022-11-13T06:47:00.740Z,11.74
2022-11-13T06:52:03.892Z,11.75
2022-11-13T06:57:07.059Z,11.79
2022-11-13T07:02:12.916Z,11.80
2022-11-13T07:07:16.339Z,11.78
2022-11-13T07:12:19.537Z,11.81
2022-11-13T07:17:24.103Z,11.84
2022-11-13T07:22:27.258Z,11.82
2022-11-13T07:27:30.403Z,11.76
2022-11-13T07:32:34.928Z,11.69
2022-11-13T07:37:38.158Z,11.73
2022-11-13T07:42:41.455Z,11.77
2022-11-13T07:47:46.021Z,11.82
2022-11-13T07:52:49.142Z,11.82
2022-11-13T07:57:52.323Z,11.84
2022-11-13T08:02:58.091Z,11.91
2022-11-13T08:08:01.321Z,11.97
2022-11-13T08:13:06.539Z,12.01
2022-11-13T08:18:11.265Z,12.04
2022-11-13T08:23:14.388Z,12.05
2022-11-13T08:28:17.519Z,12.12
2022-11-13T08:33:22.123Z,12.32
2022-11-13T08:38:26.109Z,12.57
2022-11-13T08:43:29.430Z,12.77
2022-11-13T08:48:34.233Z,12.92
2022-11-13T08:53:37.406Z,12.96
2022-11-13T08:58:40.542Z,12.95
2022-11-13T09:03:45.178Z,12.97
2022-11-13T09:08:48.365Z,13.04
2022-11-13T09:13:53.419Z,13.10
2022-11-13T09:18:58.462Z,13.16
2022-11-13T09:24:01.612Z,13.24
2022-11-13T09:29:05.590Z,13.36
2022-11-13T09:34:10.431Z,13.46
2022-11-13T09:39:13.588Z,13.53
2022-11-13T09:44:21.757Z,13.48
2022-11-13T09:49:29.897Z,13.33
2022-11-13T09:54:33.141Z,13.20
2022-11-13T09:59:41.083Z,13.14
2022-11-13T10:04:57.894Z,13.11
2022-11-13T10:10:18.636Z,13.13
2022-11-13T10:15:22.384Z,13.14
2022-11-13T10:20:34.720Z,13.15
2022-11-13T10:25:39.401Z,13.26
2022-11-13T10:30:42.721Z,13.44
2022-11-13T10:35:53.301Z,13.64
2022-11-13T10:41:08.218Z,13.75
2022-11-13T10:46:19.986Z,13.92
2022-11-13T10:51:27.723Z,14.09
2022-11-13T10:56:32.773Z,14.23
2022-11-13T11:01:35.978Z,14.31
2022-11-13T11:07:19.177Z,14.39
2022-11-13T11:12:19.208Z,14.44
2022-11-13T11:17:27.516Z,14.61
2022-11-13T11:22:35.505Z,14.77
2022-11-13T11:27:44.679Z,14.82
2022-11-13T11:32:53.379Z,14.86
2022-11-13T11:38:04.163Z,14.80
2022-11-13T11:43:17.445Z,14.82
2022-11-13T11:48:22.879Z,14.90
2022-11-13T11:53:40.916Z,15.02
2022-11-13T11:59:14.639Z,15.15
2022-11-13T12:04:30.006Z,15.42
2022-11-13T12:09:37.969Z,15.62
2022-11-13T12:14:52.489Z,15.76
2022-11-13T12:20:04.007Z,15.88
2022-11-13T12:25:19.964Z,16.12
2022-11-13T12:30:26.178Z,16.18
2022-11-13T12:35:30.601Z,16.18
2022-11-13T12:40:44.657Z,16.29
2022-11-13T12:45:53.591Z,16.30
2022-11-13T12:51:01.400Z,16.78
2022-11-13T12:56:06.531Z,17.64
2022-11-13T13:01:19.501Z,18.08
2022-11-13T13:06:42.693Z,18.21
2022-11-13T13:11:54.656Z,18.28
2022-11-13T13:17:06.945Z,18.65
2022-11-13T13:22:12.445Z,20.10
2022-11-13T13:27:25.922Z,20.68
2022-11-13T13:32:37.546Z,21.36
2022-11-13T13:37:48.617Z,22.18
2022-11-13T13:43:08.349Z,22.69
2022-11-13T13:48:13.696Z,23.28
2022-11-13T13:53:22.353Z,23.36
2022-11-13T13:58:30.884Z,23.56
2022-11-13T14:03:34.335Z,22.58
2022-11-13T14:08:37.485Z,22.78
2022-11-13T14:13:42.099Z,22.83
2022-11-13T14:18:45.350Z,22.16
2022-11-13T14:23:50.723Z,21.42
2022-11-13T14:28:59.312Z,21.00
2022-11-13T14:34:09.637Z,20.37
2022-11-13T14:39:26.639Z,19.91
2022-11-13T14:44:33.600Z,19.43
2022-11-13T14:49:38.819Z,19.17
2022-11-13T14:55:13.019Z,19.05
2022-11-13T15:00:14.604Z,19.05
2022-11-13T15:05:17.750Z,19.36
2022-11-13T15:10:23.163Z,19.46
2022-11-13T15:15:31.429Z,19.34
2022-11-13T15:20:34.838Z,19.06
2022-11-13T15:25:37.990Z,18.97
2022-11-13T15:30:42.523Z,19.18
2022-11-13T15:35:45.776Z,19.11
2022-11-13T15:40:49.663Z,18.82
2022-11-13T15:45:54.206Z,18.46
2022-11-13T15:50:57.434Z,18.24
2022-11-13T15:56:03.273Z,18.16
2022-11-13T16:01:09.467Z,18.00
2022-11-13T16:06:13.925Z,17.91
2022-11-13T16:11:18.136Z,17.82
2022-11-13T16:16:24.869Z,17.72
2022-11-13T16:21:27.992Z,17.59
2022-11-13T16:26:31.465Z,17.48
2022-11-13T16:31:36.005Z,17.44
2022-11-13T16:36:39.046Z,17.36
2022-11-13T16:41:42.166Z,17.31
2022-11-13T16:46:48.220Z,17.30
2022-11-13T16:51:52.187Z,17.24
2022-11-13T16:56:55.379Z,17.22
2022-11-13T17:02:00.086Z,17.11
2022-11-13T17:07:03.664Z,17.09
2022-11-13T17:12:07.188Z,17.09
2022-11-13T17:17:14.518Z,17.09
2022-11-13T17:22:18.094Z,17.08
2022-11-13T17:27:21.255Z,17.10
2022-11-13T17:32:25.894Z,17.09
2022-11-13T17:37:28.789Z,16.92
2022-11-13T17:42:31.898Z,16.87
2022-11-13T17:47:36.490Z,16.84
2022-11-13T17:52:39.388Z,16.75
2022-11-13T17:57:42.574Z,16.74
2022-11-13T18:02:47.308Z,16.71
2022-11-13T18:07:50.425Z,16.52
2022-11-13T18:12:53.547Z,16.41
2022-11-13T18:17:58.092Z,16.35
2022-11-13T18:23:01.285Z,16.30
2022-11-13T18:28:04.461Z,16.22
2022-11-13T18:33:09.020Z,16.10
2022-11-13T18:38:12.160Z,16.10
2022-11-13T18:43:16.392Z,16.09
2022-11-13T18:48:20.966Z,16.09
2022-11-13T18:53:24.198Z,16.09
2022-11-13T18:58:27.473Z,16.08
2022-11-13T19:03:32.069Z,15.99
2022-11-13T19:08:39.463Z,15.96
2022-11-13T19:13:45.909Z,15.97
2022-11-13T19:18:54.628Z,15.90
2022-11-13T19:23:58.590Z,15.85
2022-11-13T19:29:01.731Z,15.85
2022-11-13T19:34:08.409Z,15.83
2022-11-13T19:39:11.820Z,15.82
2022-11-13T19:44:15.120Z,15.75
2022-11-13T19:49:20.184Z,15.78
2022-11-13T19:54:23.339Z,15.80
2022-11-13T19:59:26.543Z,15.80
2022-11-13T20:04:31.155Z,15.79
2022-11-13T20:09:34.360Z,15.81
2022-11-13T20:14:38.702Z,15.82
2022-11-13T20:19:43.395Z,15.87
2022-11-13T20:24:46.561Z,15.91
2022-11-13T20:29:49.968Z,15.88
2022-11-13T20:34:54.579Z,15.83
2022-11-13T20:39:57.786Z,15.73
2022-11-13T20:45:01.410Z,15.75
2022-11-13T20:50:06.691Z,15.79
2022-11-13T20:55:10.564Z,15.80
2022-11-13T21:00:14.308Z,15.81
2022-11-13T21:05:18.993Z,15.78
2022-11-13T21:10:21.852Z,15.72
2022-11-13T21:15:25.011Z,15.71
2022-11-13T21:20:29.549Z,15.61
2022-11-13T21:25:33.045Z,15.55
2022-11-13T21:30:36.169Z,15.53
2022-11-13T21:35:40.690Z,15.53
2022-11-13T21:40:44.587Z,15.53
2022-11-13T21:45:47.726Z,15.57
2022-11-13T21:50:52.371Z,15.55
2022-11-13T21:55:55.256Z,15.48
2022-11-13T22:00:58.685Z,15.52
2022-11-13T22:06:21.502Z,15.47
2022-11-13T22:11:25.208Z,15.44
2022-11-13T22:16:31.422Z,15.43
2022-11-13T22:21:36.935Z,15.45
2022-11-13T22:26:41.950Z,15.47
2022-11-13T22:31:45.577Z,15.50
2022-11-13T22:36:50.114Z,15.54
2022-11-13T22:41:53.280Z,15.55
2022-11-13T22:46:56.450Z,15.65
2022-11-13T22:52:00.968Z,15.55
2022-11-13T22:57:04.296Z,15.42
2022-11-13T23:02:07.450Z,15.30
2022-11-13T23:07:12.001Z,15.19
2022-11-13T23:12:15.170Z,15.16
2022-11-13T23:17:18.281Z,14.96
2022-11-13T23:22:22.819Z,14.91
2022-11-13T23:27:25.970Z,14.90
2022-11-13T23:32:29.136Z,14.89
2022-11-13T23:37:33.662Z,14.93
2022-11-13T23:42:54.167Z,14.97
2022-11-13T23:47:57.726Z,14.98
2022-11-13T23:53:02.278Z,14.93
2022-11-13T23:58:07.573Z,14.87
